KRMN

Details ICAO KRMN
Name STAFFORD RGNL
Region United States
Timezone America/New_York (UTC-4.0)
Plans Departing 14
Arriving 11
Stats Elevation 211 ft / 64 m (AMSL)
Location 38.398096° -77.455465°
Runways 1
Magnetic Variation 10.487° W
Sunrise 2018-05-21 09:55:14 UTC / 2018-05-21 05:55:14 Local
Sunset 2018-05-22 00:20:28 UTC / 2018-05-21 20:20:28 Local
Advertisement - Login to hide

Runways

ID Width Length Bearing (true) Bearing (mag) Surface Threshold Offset Overrun Length
15 100 ft / 30 m 5,001 ft / 1,524 m 139.27° 149.76° Asphalt 0 ft / 0 m 0 ft / 0 m
33 100 ft / 30 m 5,001 ft / 1,524 m 319.28° 329.77° Asphalt 0 ft / 0 m 0 ft / 0 m

Approach Navaids

Runway Type Ident Frequency Range Bearing (true) Bearing (mag) Slope Elevation
33 Localiser IRMN 108.75 MHz 18 nm / 33 km 319.26° 329.75° - 218 ft / 66 m (AMSL)
33 Glidescope IRMN 108.75 MHz 10 nm / 19 km 319.28° 329.76° 3.00° 175 ft / 53 m (AMSL)
33 DME IRMN 108.75 MHz 18 nm / 33 km - - - 226 ft / 69 m (AMSL)

Map

Weather


0- 5 10 15 20 25 30 35+ Temperature / ° C

Clouds and Precipitation
Forecast for 2018-05-21 18:00 UTC. Updated 2 hours ago

Ground ~20,000 ft ~40,000 ft Winds

METAR

KRMN 211935Z AUTO 00000KT 10SM CLR 27/18 A3018 RMK AO2 T02700178

TAF

Not found

Frequencies

Recorded 126.32 MHz AWOS 3
Approach 124.65 MHz POTOMAC APP/DEP
Unicom 122.72 MHz CTAF/UNICOM
Approach 127.05 MHz QUANTICO ARRIVAL
Warning: Do not use this data for real-world aviation or navigation. No guarantee of current accuracy is given.